createdAt,value
2019-02-24T00:04:39.252Z,-2.00
2019-02-24T00:09:30.945Z,-2.10
2019-02-24T00:14:24.595Z,-2.20
2019-02-24T00:19:18.350Z,-2.10
2019-02-24T00:24:14.360Z,-2.20
2019-02-24T00:29:05.808Z,-2.10
2019-02-24T00:33:57.190Z,-2.20
2019-02-24T00:38:48.611Z,-2.40
2019-02-24T00:43:40.002Z,-2.40
2019-02-24T00:48:33.588Z,-2.50
2019-02-24T00:53:25.055Z,-2.50
2019-02-24T00:58:17.165Z,-2.50
2019-02-24T01:03:07.842Z,-2.60
2019-02-24T01:07:59.246Z,-2.70
2019-02-24T01:12:50.605Z,-2.70
2019-02-24T01:17:44.288Z,-2.80
2019-02-24T01:22:37.963Z,-2.70
2019-02-24T01:27:29.418Z,-2.80
2019-02-24T01:32:20.761Z,-2.70
2019-02-24T01:37:12.196Z,-2.70
2019-02-24T01:42:08.087Z,-2.90
2019-02-24T01:46:59.540Z,-2.90
2019-02-24T01:51:50.915Z,-3.00
2019-02-24T01:56:42.288Z,-3.00
2019-02-24T02:01:33.693Z,-3.00
2019-02-24T02:06:25.050Z,-3.10
2019-02-24T02:11:16.448Z,-3.10
2019-02-24T02:16:10.105Z,-3.20
2019-02-24T02:21:03.744Z,-3.30
2019-02-24T02:25:55.197Z,-3.40
2019-02-24T02:30:46.606Z,-3.40
2019-02-24T02:35:37.964Z,-3.50
2019-02-24T02:40:31.600Z,-3.60
2019-02-24T02:45:23.006Z,-3.60
2019-02-24T02:50:14.487Z,-3.60
2019-02-24T02:55:05.799Z,-3.50
2019-02-24T02:59:57.212Z,-3.60
2019-02-24T03:04:48.573Z,-3.60
2019-02-24T03:09:42.218Z,-3.70
2019-02-24T03:14:35.894Z,-3.60
2019-02-24T03:19:27.336Z,-3.70
2019-02-24T03:24:20.912Z,-3.70
2019-02-24T03:29:12.401Z,-3.80
2019-02-24T03:34:06.055Z,-3.80
2019-02-24T03:38:57.456Z,-3.80
2019-02-24T03:43:48.859Z,-3.80
2019-02-24T03:48:40.250Z,-3.90
2019-02-24T03:53:31.683Z,-4.00
2019-02-24T03:58:23.071Z,-4.10
2019-02-24T04:03:14.471Z,-4.10
2019-02-24T04:08:05.957Z,-4.20
2019-02-24T04:12:59.528Z,-4.10
2019-02-24T04:17:53.234Z,-4.00
2019-02-24T04:22:44.681Z,-4.10
2019-02-24T04:27:38.310Z,-4.20
2019-02-24T04:32:31.946Z,-4.20
2019-02-24T04:37:23.382Z,-4.30
2019-02-24T04:42:14.825Z,-4.30
2019-02-24T04:47:06.186Z,-4.30
2019-02-24T04:51:59.780Z,-4.30
2019-02-24T04:56:51.309Z,-4.30
2019-02-24T05:01:42.651Z,-4.40
2019-02-24T05:06:34.042Z,-4.40
2019-02-24T05:11:25.546Z,-4.40
2019-02-24T05:16:16.907Z,-4.60
2019-02-24T05:21:08.216Z,-4.90
2019-02-24T05:25:59.650Z,-4.50
2019-02-24T05:30:51.051Z,-4.60
2019-02-24T05:35:42.498Z,-4.70
2019-02-24T05:40:33.816Z,-4.70
2019-02-24T05:45:25.198Z,-4.70
2019-02-24T05:50:16.620Z,-4.60
2019-02-24T05:55:07.972Z,-4.50
2019-02-24T05:59:59.436Z,-4.90
2019-02-24T06:09:46.643Z,-4.50
2019-02-24T06:14:38.129Z,-4.60
2019-02-24T06:19:29.538Z,-4.60
2019-02-24T06:24:23.093Z,-4.60
2019-02-24T06:29:16.777Z,-4.50
2019-02-24T06:34:10.411Z,-4.40
2019-02-24T06:39:01.903Z,-4.40
2019-02-24T06:43:55.534Z,-4.40
2019-02-24T06:48:46.945Z,-4.20
2019-02-24T06:53:38.306Z,-4.10
2019-02-24T06:58:29.753Z,-4.00
2019-02-24T07:03:21.175Z,-3.90
2019-02-24T07:08:17.032Z,-3.70
2019-02-24T07:13:10.862Z,-3.50
2019-02-24T07:18:02.313Z,-3.50
2019-02-24T07:22:53.668Z,-3.30
2019-02-24T07:27:45.035Z,-3.20
2019-02-24T07:32:36.424Z,-3.10
2019-02-24T07:37:32.374Z,-2.80
2019-02-24T07:42:26.030Z,-2.70
2019-02-24T07:47:17.456Z,-2.50
2019-02-24T07:52:08.841Z,-2.30
2019-02-24T07:57:02.515Z,-2.00
2019-02-24T08:01:53.987Z,-1.70
2019-02-24T08:06:45.314Z,-1.40
2019-02-24T08:11:38.980Z,-1.00
2019-02-24T08:16:30.440Z,-0.60
2019-02-24T08:21:21.838Z,-0.10
2019-02-24T08:26:15.417Z,0.20
2019-02-24T08:31:09.085Z,0.50
2019-02-24T08:36:00.525Z,0.80
2019-02-24T08:40:51.928Z,1.00
2019-02-24T08:45:45.525Z,1.30
2019-02-24T08:50:39.217Z,1.50
2019-02-24T08:55:30.655Z,1.80
2019-02-24T09:00:24.390Z,2.10
2019-02-24T09:05:15.852Z,2.40
2019-02-24T09:10:07.242Z,2.90
2019-02-24T09:15:00.905Z,3.40
2019-02-24T09:19:52.364Z,3.80
2019-02-24T09:24:43.738Z,4.20
2019-02-24T09:29:37.414Z,4.60
2019-02-24T09:34:28.864Z,4.70
2019-02-24T09:39:20.298Z,5.00
2019-02-24T09:44:11.697Z,5.30
2019-02-24T09:49:05.258Z,5.60
2019-02-24T09:53:56.756Z,5.90
2019-02-24T09:58:52.724Z,6.30
2019-02-24T10:03:44.153Z,6.50
2019-02-24T10:08:35.540Z,6.80
2019-02-24T10:13:26.908Z,7.10
2019-02-24T10:18:18.335Z,7.40
2019-02-24T10:23:09.561Z,7.60
2019-02-24T10:28:01.076Z,7.80
2019-02-24T10:32:52.508Z,7.90
2019-02-24T10:37:43.838Z,8.00
2019-02-24T10:42:35.248Z,8.70
2019-02-24T10:47:28.864Z,8.90
2019-02-24T10:52:20.292Z,9.00
2019-02-24T10:57:13.702Z,9.20
2019-02-24T11:02:05.589Z,9.50
2019-02-24T11:06:57.019Z,9.60
2019-02-24T11:11:48.446Z,9.80
2019-02-24T11:16:39.838Z,10.00
2019-02-24T11:21:35.807Z,10.20
2019-02-24T11:26:27.257Z,10.30
2019-02-24T11:31:18.663Z,10.40
2019-02-24T11:36:10.034Z,10.60
2019-02-24T11:41:05.926Z,10.80
2019-02-24T11:45:59.609Z,11.00
2019-02-24T11:55:46.974Z,11.20
2019-02-24T12:00:38.355Z,11.20
2019-02-24T12:05:31.941Z,11.20
2019-02-24T12:10:25.651Z,11.30
2019-02-24T12:15:17.166Z,11.40
2019-02-24T12:20:10.777Z,11.40
2019-02-24T12:25:02.208Z,11.40
2019-02-24T12:29:53.649Z,11.50
2019-02-24T12:34:49.653Z,11.50
2019-02-24T12:39:41.219Z,11.50
2019-02-24T12:44:32.506Z,11.50
2019-02-24T12:49:23.924Z,11.30
2019-02-24T12:59:06.781Z,11.40
2019-02-24T13:04:00.360Z,11.40
2019-02-24T13:08:51.862Z,11.40
2019-02-24T13:13:43.217Z,11.50
2019-02-24T13:18:34.635Z,11.50
2019-02-24T13:23:26.038Z,11.60
2019-02-24T13:28:21.945Z,11.70
2019-02-24T13:33:13.386Z,11.60
2019-02-24T13:38:06.992Z,11.60
2019-02-24T13:42:58.475Z,11.70
2019-02-24T13:47:49.849Z,11.60
2019-02-24T13:52:41.255Z,11.60
2019-02-24T13:57:32.657Z,11.80
2019-02-24T14:02:25.033Z,12.00
2019-02-24T14:07:15.425Z,12.00
2019-02-24T14:12:06.825Z,12.00
2019-02-24T14:21:49.660Z,12.20
2019-02-24T14:26:40.973Z,12.30
2019-02-24T14:31:32.413Z,12.40
2019-02-24T14:36:23.897Z,12.40
2019-02-24T14:41:15.282Z,12.40
2019-02-24T14:46:06.645Z,12.40
2019-02-24T14:51:00.326Z,12.50
2019-02-24T14:55:51.782Z,12.50
2019-02-24T15:00:43.135Z,12.60
2019-02-24T15:05:36.787Z,12.70
2019-02-24T15:10:30.478Z,12.60
2019-02-24T15:15:21.915Z,12.60
2019-02-24T15:20:13.342Z,12.50
2019-02-24T15:25:04.690Z,12.40
2019-02-24T15:29:56.167Z,12.20
2019-02-24T15:34:49.740Z,12.20
2019-02-24T15:39:41.233Z,12.10
2019-02-24T15:44:32.598Z,12.00
2019-02-24T15:49:26.228Z,12.00
2019-02-24T15:54:19.896Z,11.90
2019-02-24T15:59:11.352Z,11.80
2019-02-24T16:04:02.763Z,11.80
2019-02-24T16:08:54.139Z,11.80
2019-02-24T16:13:47.762Z,11.70
2019-02-24T16:18:39.259Z,11.50
2019-02-24T16:28:37.946Z,11.20
2019-02-24T16:33:29.381Z,11.10
2019-02-24T16:38:20.722Z,11.10
2019-02-24T16:43:12.219Z,10.90
2019-02-24T16:48:05.821Z,10.80
2019-02-24T16:53:04.710Z,10.70
2019-02-24T16:57:56.137Z,10.50
2019-02-24T17:02:49.729Z,10.20
2019-02-24T17:07:41.222Z,9.80
2019-02-24T17:12:34.845Z,9.30
2019-02-24T17:17:26.273Z,8.80
2019-02-24T17:22:19.919Z,8.00
2019-02-24T17:27:11.395Z,7.30
2019-02-24T17:36:54.118Z,6.30
2019-02-24T17:41:45.540Z,6.00
2019-02-24T17:46:39.137Z,5.60
2019-02-24T17:51:30.621Z,5.20
2019-02-24T17:56:24.218Z,4.90
2019-02-24T18:01:15.650Z,4.90
2019-02-24T18:06:07.138Z,4.90
2019-02-24T18:10:58.497Z,5.20
2019-02-24T18:15:49.933Z,5.20
2019-02-24T18:20:43.569Z,5.00
2019-02-24T18:25:37.254Z,4.70
2019-02-24T18:30:28.854Z,4.30
2019-02-24T18:35:20.077Z,4.10
2019-02-24T18:40:16.055Z,3.80
2019-02-24T18:45:09.724Z,3.60
2019-02-24T18:50:01.297Z,3.70
2019-02-24T18:54:52.607Z,3.60
2019-02-24T18:59:46.198Z,3.50
2019-02-24T19:04:39.849Z,3.30
2019-02-24T19:09:31.341Z,3.20
2019-02-24T19:14:22.750Z,2.90
2019-02-24T19:19:14.183Z,2.80
2019-02-24T19:24:05.474Z,2.50
2019-02-24T19:28:56.956Z,2.30
2019-02-24T19:33:48.350Z,2.20
2019-02-24T19:38:39.849Z,2.30
2019-02-24T19:43:31.081Z,2.30
2019-02-24T19:48:22.563Z,2.10
2019-02-24T19:53:13.952Z,1.90
2019-02-24T20:02:58.969Z,1.60
2019-02-24T20:07:50.377Z,1.50
2019-02-24T20:12:41.747Z,1.40
2019-02-24T20:17:33.547Z,1.30
2019-02-24T20:22:24.533Z,1.10
2019-02-24T20:27:15.996Z,1.10
2019-02-24T20:32:07.308Z,1.00
2019-02-24T20:36:59.110Z,0.90
2019-02-24T20:41:52.391Z,0.70
2019-02-24T20:46:43.830Z,0.60
2019-02-24T20:51:35.245Z,0.50
2019-02-24T20:56:26.613Z,0.50
2019-02-24T21:01:20.359Z,0.40
2019-02-24T21:06:11.820Z,0.30
2019-02-24T21:11:03.270Z,0.30
2019-02-24T21:15:56.914Z,0.10
2019-02-24T21:20:48.300Z,0.10
2019-02-24T21:25:39.731Z,0.10
2019-02-24T21:30:32.537Z,0.00
2019-02-24T21:35:22.523Z,0.00
2019-02-24T21:40:13.913Z,-0.20
2019-02-24T21:45:05.325Z,-0.10
2019-02-24T21:49:56.760Z,-0.10
2019-02-24T21:54:54.871Z,-0.10
2019-02-24T21:59:48.533Z,-0.30
2019-02-24T22:04:42.271Z,-0.30
2019-02-24T22:09:35.985Z,-0.40
2019-02-24T22:14:29.731Z,-0.50
2019-02-24T22:19:21.116Z,-0.50
2019-02-24T22:24:12.521Z,-0.50
2019-02-24T22:29:04.005Z,-0.60
2019-02-24T22:33:55.307Z,-0.60
2019-02-24T22:38:46.721Z,-0.60
2019-02-24T22:43:40.339Z,-0.80
2019-02-24T22:48:31.772Z,-0.90
2019-02-24T22:53:23.218Z,-0.80
2019-02-24T22:58:14.567Z,-0.80
2019-02-24T23:03:05.939Z,-0.80
2019-02-24T23:07:57.386Z,-1.00
2019-02-24T23:12:48.798Z,-1.00
2019-02-24T23:17:42.464Z,-1.00
2019-02-24T23:22:33.942Z,-1.10
2019-02-24T23:27:25.347Z,-1.10
2019-02-24T23:32:16.721Z,-1.10
2019-02-24T23:37:10.332Z,-1.20
2019-02-24T23:42:06.286Z,-1.10
2019-02-24T23:46:57.754Z,-1.10
2019-02-24T23:51:49.189Z,-1.10
2019-02-24T23:56:42.835Z,-1.20
